Time;durP1;ratioP1;P1;durP2;ratioP2;P2;SDS_P1;SDS_P2;PMS_P1;PMS_P2;Temp;Humidity;BMP_temperature;BMP_pressure;BME280_temperature;BME280_humidity;BME280_pressure;Samples;Min_cycle;Max_cycle;Signal;HPM_P1;HPM_P2
2021/11/24 00:01:11;;;;;;;6.30;4.63;;;6.20;95.30;;;;;;5088060;28;20656;-75
2021/11/24 00:03:37;;;;;;;10.17;4.97;;;6.10;95.20;;;;;;5097288;28;20178;-75
2021/11/24 00:06:02;;;;;;;6.57;4.57;;;6.10;95.20;;;;;;5094465;28;20234;-75
2021/11/24 00:08:28;;;;;;;6.20;4.17;;;6.10;95.20;;;;;;5090756;28;20575;-77
2021/11/24 00:10:54;;;;;;;5.00;4.40;;;6.10;95.20;;;;;;5089639;28;20262;-77
2021/11/24 00:13:20;;;;;;;6.93;5.00;;;6.10;95.10;;;;;;5089422;28;20171;-77
2021/11/24 00:15:45;;;;;;;6.73;4.70;;;6.10;95.20;;;;;;5096480;28;20177;-77
2021/11/24 00:18:11;;;;;;;6.27;4.20;;;6.20;95.20;;;;;;5090948;28;20186;-77
2021/11/24 00:20:37;;;;;;;4.97;3.27;;;6.20;95.10;;;;;;5091576;28;20182;-77
2021/11/24 00:23:03;;;;;;;6.03;4.00;;;6.20;95.00;;;;;;5096120;28;20568;-77
2021/11/24 00:25:29;;;;;;;4.77;3.57;;;6.20;95.00;;;;;;5094639;28;20228;-75
2021/11/24 00:27:55;;;;;;;5.70;3.00;;;6.10;94.80;;;;;;5086667;28;20179;-77
2021/11/24 00:30:21;;;;;;;6.53;4.03;;;6.10;94.80;;;;;;5089351;28;20201;-77
2021/11/24 00:32:46;;;;;;;5.57;3.93;;;6.10;94.90;;;;;;5092920;28;20193;-77
2021/11/24 00:35:12;;;;;;;7.40;4.50;;;6.10;94.90;;;;;;5094605;28;20258;-77
2021/11/24 00:37:38;;;;;;;5.27;4.07;;;6.10;95.00;;;;;;5087114;28;20183;-77
2021/11/24 00:40:05;;;;;;;6.80;4.30;;;6.20;94.80;;;;;;5091902;28;20296;-78
2021/11/24 00:42:31;;;;;;;4.27;3.83;;;;;;;;;;5088405;28;20213;-77
2021/11/24 00:44:57;;;;;;;6.17;3.90;;;;;;;;;;5091338;28;20197;-77
2021/11/24 00:47:24;;;;;;;5.50;3.80;;;;;;;;;;5094864;28;20178;-77
2021/11/24 00:49:49;;;;;;;5.87;3.70;;;6.20;94.80;;;;;;5089261;28;20230;-77
2021/11/24 00:52:15;;;;;;;4.67;3.83;;;6.20;94.70;;;;;;5086035;28;20756;-77
2021/11/24 00:54:41;;;;;;;8.10;4.00;;;;;;;;;;5091854;28;20205;-78
2021/11/24 00:57:07;;;;;;;8.47;3.70;;;6.20;94.90;;;;;;5090847;28;20186;-77
2021/11/24 00:59:33;;;;;;;4.40;3.40;;;;;;;;;;5092873;28;21007;-77
2021/11/24 01:01:59;;;;;;;3.80;3.50;;;;;;;;;;5095866;28;20209;-77
2021/11/24 01:04:25;;;;;;;8.37;4.40;;;;;;;;;;5091012;28;21001;-77
2021/11/24 01:06:51;;;;;;;5.60;4.13;;;6.10;94.80;;;;;;5085311;28;20217;-77
2021/11/24 01:09:17;;;;;;;3.97;3.50;;;6.10;94.70;;;;;;5095738;28;20182;-77
2021/11/24 01:11:43;;;;;;;4.13;3.73;;;;;;;;;;5092435;28;20182;-77
2021/11/24 01:14:09;;;;;;;5.13;3.63;;;6.10;94.80;;;;;;5088125;28;20690;-77
2021/11/24 01:16:35;;;;;;;3.73;3.43;;;;;;;;;;5094476;28;20270;-78
2021/11/24 01:19:02;;;;;;;4.57;3.83;;;6.10;95.00;;;;;;5090376;28;20206;-77
2021/11/24 01:21:28;;;;;;;3.97;3.57;;;6.10;95.00;;;;;;5092677;28;20177;-77
2021/11/24 01:23:54;;;;;;;6.30;3.10;;;;;;;;;;5089360;28;20177;-77
2021/11/24 01:26:21;;;;;;;5.20;3.93;;;;;;;;;;5088782;28;20170;-77
2021/11/24 01:28:47;;;;;;;6.27;3.37;;;;;;;;;;5092059;28;20680;-78
2021/11/24 01:31:13;;;;;;;4.60;4.13;;;6.00;95.20;;;;;;5087518;28;20697;-78
2021/11/24 01:33:38;;;;;;;4.93;3.07;;;6.00;95.10;;;;;;5097330;28;20282;-78
2021/11/24 01:36:04;;;;;;;5.83;3.70;;;6.00;95.20;;;;;;5083080;28;20664;-78
2021/11/24 01:38:30;;;;;;;4.33;3.27;;;6.00;95.20;;;;;;5085543;28;20210;-77
2021/11/24 01:40:56;;;;;;;4.50;3.10;;;6.00;95.20;;;;;;5088884;28;20182;-75
2021/11/24 01:43:22;;;;;;;4.63;3.80;;;6.00;95.20;;;;;;5091679;28;20566;-75
2021/11/24 01:45:48;;;;;;;8.10;2.87;;;6.00;95.20;;;;;;5083841;28;20190;-75
2021/11/24 01:48:14;;;;;;;7.77;4.63;;;6.00;95.20;;;;;;5091018;28;20175;-75
2021/11/24 01:50:40;;;;;;;8.20;3.97;;;6.00;95.20;;;;;;5089141;28;20689;-75
2021/11/24 01:53:06;;;;;;;5.90;3.80;;;6.10;95.20;;;;;;5090809;28;20177;-77
2021/11/24 01:55:32;;;;;;;4.90;3.27;;;;;;;;;;5090869;28;20181;-76
2021/11/24 01:57:58;;;;;;;7.90;4.77;;;6.10;95.10;;;;;;5088270;28;20195;-76
2021/11/24 02:00:28;;;;;;;8.07;4.07;;;6.20;95.00;;;;;;5092703;28;20222;-77
2021/11/24 02:02:54;;;;;;;7.50;3.63;;;6.20;95.00;;;;;;5094516;28;20243;-75
2021/11/24 02:05:21;;;;;;;4.93;3.73;;;6.20;94.90;;;;;;5086565;28;20178;-77
2021/11/24 02:07:48;;;;;;;5.97;3.27;;;6.20;94.80;;;;;;5095817;28;20171;-77
2021/11/24 02:10:14;;;;;;;6.93;3.93;;;;;;;;;;5094896;28;20190;-77
2021/11/24 02:12:41;;;;;;;5.17;3.43;;;6.20;94.70;;;;;;5089447;28;20186;-77
2021/11/24 02:15:08;;;;;;;4.17;3.83;;;6.20;94.70;;;;;;5094841;28;20186;-77
2021/11/24 02:17:34;;;;;;;5.30;4.10;;;;;;;;;;5093510;28;20632;-77
2021/11/24 02:20:00;;;;;;;4.90;3.53;;;6.20;94.90;;;;;;5093222;28;20206;-77
2021/11/24 02:22:26;;;;;;;5.43;3.57;;;;;;;;;;5090084;28;20635;-77
2021/11/24 02:24:52;;;;;;;9.80;4.13;;;;;;;;;;5093048;28;20190;-77
2021/11/24 02:27:18;;;;;;;3.33;3.10;;;;;;;;;;5102132;28;20174;-77
2021/11/24 02:29:44;;;;;;;6.67;4.77;;;6.20;94.80;;;;;;5098619;28;20565;-77
2021/11/24 02:32:12;;;;;;;6.43;4.10;;;6.10;94.70;;;;;;5096880;28;20178;-77
2021/11/24 02:34:38;;;;;;;6.00;4.07;;;6.10;94.80;;;;;;5095672;28;20661;-77
2021/11/24 02:37:04;;;;;;;7.13;3.83;;;6.10;94.90;;;;;;5090397;28;20190;-77
2021/11/24 02:39:30;;;;;;;5.07;4.03;;;6.10;95.00;;;;;;5090661;28;20222;-77
2021/11/24 02:41:57;;;;;;;5.47;4.63;;;6.00;95.10;;;;;;5088422;28;20203;-77
2021/11/24 02:44:26;;;;;;;6.13;4.50;;;6.00;95.20;;;;;;5093173;28;20183;-77
2021/11/24 02:46:54;;;;;;;4.97;3.80;;;6.00;95.20;;;;;;5088906;28;20177;-77
2021/11/24 02:49:20;;;;;;;7.57;5.10;;;6.00;95.20;;;;;;5095797;28;20178;-77
2021/11/24 02:51:46;;;;;;;6.63;4.77;;;6.00;95.20;;;;;;5091185;28;20186;-77
2021/11/24 02:54:13;;;;;;;7.93;5.60;;;5.90;95.30;;;;;;5093545;28;20177;-77
2021/11/24 02:56:40;;;;;;;4.37;3.93;;;5.90;95.40;;;;;;5085747;28;20182;-77
2021/11/24 02:59:08;;;;;;;5.40;4.57;;;5.90;95.50;;;;;;5092548;28;20206;-77
2021/11/24 03:01:34;;;;;;;6.43;4.00;;;;;;;;;;5094071;28;20181;-77
2021/11/24 03:04:00;;;;;;;8.20;4.53;;;;;;;;;;5092624;28;20663;-77
2021/11/24 03:06:26;;;;;;;4.43;3.53;;;;;;;;;;5095251;28;20575;-77
2021/11/24 03:08:52;;;;;;;6.03;4.30;;;5.90;95.50;;;;;;5089643;28;20266;-75
2021/11/24 03:11:18;;;;;;;4.17;3.80;;;5.90;95.40;;;;;;5084423;28;20315;-75
2021/11/24 03:13:44;;;;;;;6.20;4.83;;;;;;;;;;5088854;28;20250;-75
2021/11/24 03:16:10;;;;;;;4.87;3.70;;;;;;;;;;5096311;28;20250;-77
2021/11/24 03:18:36;;;;;;;6.67;4.00;;;;;;;;;;5094573;28;20229;-77
2021/11/24 03:21:02;;;;;;;4.07;3.40;;;;;;;;;;5088670;28;20186;-77
2021/11/24 03:23:28;;;;;;;5.77;4.20;;;;;;;;;;5087548;28;20238;-77
2021/11/24 03:25:54;;;;;;;5.20;4.70;;;;;;;;;;5089910;28;20218;-77
2021/11/24 03:28:20;;;;;;;7.83;5.00;;;;;;;;;;5090315;28;20926;-77
2021/11/24 03:30:46;;;;;;;4.43;3.87;;;6.00;95.20;;;;;;5092531;28;20189;-77
2021/11/24 03:33:12;;;;;;;8.33;6.33;;;6.00;95.20;;;;;;5089811;28;20929;-77
2021/11/24 03:35:38;;;;;;;8.00;5.27;;;5.90;95.20;;;;;;5089566;28;20187;-77
2021/11/24 03:38:04;;;;;;;5.37;3.97;;;6.00;95.30;;;;;;5090018;28;20636;-77
2021/11/24 03:40:32;;;;;;;6.37;4.10;;;6.10;95.20;;;;;;5086624;28;20183;-77
2021/11/24 03:42:58;;;;;;;4.80;4.20;;;6.10;95.20;;;;;;5094935;28;20268;-77
2021/11/24 03:45:28;;;;;;;4.67;4.23;;;6.10;95.00;;;;;;5085014;28;20236;-77
2021/11/24 03:47:55;;;;;;;4.13;3.63;;;6.10;95.00;;;;;;5094296;28;20186;-78
2021/11/24 03:50:21;;;;;;;4.67;3.80;;;;;;;;;;5083889;28;20256;-77
2021/11/24 03:52:46;;;;;;;7.40;5.00;;;6.10;94.90;;;;;;5093003;28;20578;-76
2021/11/24 03:55:15;;;;;;;4.80;3.40;;;6.10;95.00;;;;;;5082769;28;20187;-77
2021/11/24 03:57:41;;;;;;;4.80;4.37;;;6.10;95.10;;;;;;5093053;28;20177;-77
2021/11/24 04:00:14;;;;;;;7.33;4.40;;;6.10;95.00;;;;;;5093232;28;20707;-77
2021/11/24 04:02:40;;;;;;;4.30;3.87;;;;;;;;;;5090651;28;20629;-77
2021/11/24 04:05:08;;;;;;;6.60;4.83;;;6.00;95.10;;;;;;5093349;28;20182;-77
2021/11/24 04:07:40;;;;;;;6.00;4.10;;;6.00;95.20;;;;;;5094829;28;20177;-78
2021/11/24 04:10:08;;;;;;;5.03;3.27;;;6.00;95.30;;;;;;5081822;28;20265;-78
2021/11/24 04:12:34;;;;;;;4.37;3.93;;;6.00;95.30;;;;;;5088810;28;20182;-77
2021/11/24 04:15:00;;;;;;;4.67;3.07;;;6.10;95.30;;;;;;5086739;28;20306;-78
2021/11/24 04:17:27;;;;;;;3.57;3.27;;;;;;;;;;5090407;28;20672;-75
2021/11/24 04:19:53;;;;;;;4.07;3.43;;;;;;;;;;5089643;27;20758;-75
2021/11/24 04:22:19;;;;;;;5.20;3.80;;;;;;;;;;5093521;28;20177;-75
2021/11/24 04:24:45;;;;;;;5.37;4.20;;;6.00;95.40;;;;;;5092742;28;20190;-76
2021/11/24 04:27:11;;;;;;;5.57;4.10;;;;;;;;;;5088347;28;20182;-76
2021/11/24 04:29:37;;;;;;;6.73;3.93;;;6.00;95.30;;;;;;5087086;28;20182;-75
2021/11/24 04:32:03;;;;;;;7.00;4.67;;;6.00;95.30;;;;;;5085368;28;20265;-75
2021/11/24 04:34:30;;;;;;;6.97;4.57;;;;;;;;;;5087802;28;20743;-76
2021/11/24 04:36:56;;;;;;;4.67;3.37;;;;;;;;;;5088792;28;20947;-75
2021/11/24 04:39:22;;;;;;;6.87;4.00;;;;;;;;;;5093343;28;20282;-76
2021/11/24 04:41:48;;;;;;;3.13;2.90;;;;;;;;;;5086776;28;20189;-76
2021/11/24 04:44:14;;;;;;;3.57;3.27;;;6.00;95.30;;;;;;5088194;28;20182;-76
2021/11/24 04:46:40;;;;;;;4.23;3.63;;;6.00;95.20;;;;;;5087892;28;20177;-76
2021/11/24 04:49:06;;;;;;;3.27;2.87;;;;;;;;;;5087432;28;20193;-76
2021/11/24 04:51:32;;;;;;;11.40;4.40;;;;;;;;;;5089074;28;20188;-77
2021/11/24 04:53:58;;;;;;;4.20;3.90;;;;;;;;;;5089876;28;20200;-76
2021/11/24 04:56:24;;;;;;;7.27;4.30;;;;;;;;;;5088197;28;20188;-76
2021/11/24 04:58:59;;;;;;;9.77;4.07;;;;;;;;;;5087618;28;20487;-76
2021/11/24 05:01:25;;;;;;;4.23;3.50;;;;;;;;;;5090512;28;20178;-76
2021/11/24 05:03:51;;;;;;;8.70;5.67;;;;;;;;;;5089992;28;20198;-76
2021/11/24 05:06:19;;;;;;;3.27;2.83;;;5.90;95.20;;;;;;5090079;28;20180;-76
2021/11/24 05:08:45;;;;;;;4.93;4.53;;;;;;;;;;5088972;28;20253;-76
2021/11/24 05:11:13;;;;;;;8.87;6.67;;;6.00;95.20;;;;;;5089335;28;20305;-76
2021/11/24 05:13:46;;;;;;;12.80;6.63;;;5.90;95.10;;;;;;5094635;28;20181;-76
2021/11/24 05:16:12;;;;;;;8.87;6.57;;;5.90;95.10;;;;;;5088524;28;20202;-76
2021/11/24 05:18:41;;;;;;;9.30;6.83;;;5.90;95.10;;;;;;5095844;28;20233;-77
2021/11/24 05:21:13;;;;;;;9.17;6.60;;;5.90;95.10;;;;;;5090315;28;20887;-76
2021/11/24 05:23:42;;;;;;;8.70;6.17;;;5.90;95.10;;;;;;5091702;28;20189;-76
2021/11/24 05:26:08;;;;;;;9.53;6.73;;;;;;;;;;5095610;28;20166;-76
2021/11/24 05:28:34;;;;;;;6.03;5.47;;;;;;;;;;5091102;28;20259;-76
2021/11/24 05:31:01;;;;;;;5.70;4.40;;;5.90;95.10;;;;;;5092071;28;20676;-76
2021/11/24 05:33:27;;;;;;;7.53;4.17;;;6.00;95.10;;;;;;5085165;28;20178;-76
2021/11/24 05:35:53;;;;;;;8.27;6.13;;;5.90;95.10;;;;;;5088613;28;20189;-76
2021/11/24 05:38:19;;;;;;;7.80;5.17;;;6.00;95.10;;;;;;5083057;28;20582;-76
2021/11/24 05:40:45;;;;;;;5.17;3.73;;;6.10;94.90;;;;;;5087579;28;20178;-76
2021/11/24 05:43:13;;;;;;;6.53;4.67;;;6.10;94.90;;;;;;5094030;28;20562;-76
2021/11/24 05:45:48;;;;;;;5.27;3.13;;;6.10;94.70;;;;;;5090001;28;20269;-76
2021/11/24 05:48:14;;;;;;;4.90;3.83;;;6.20;94.70;;;;;;5096793;28;20174;-76
2021/11/24 05:50:43;;;;;;;4.53;3.43;;;6.20;94.70;;;;;;5099162;28;20266;-77
2021/11/24 05:53:10;;;;;;;4.10;3.70;;;;;;;;;;5098421;28;20179;-77
2021/11/24 05:55:36;;;;;;;5.93;4.43;;;;;;;;;;5096087;28;20185;-77
2021/11/24 05:58:02;;;;;;;7.43;5.00;;;;;;;;;;5094149;28;20574;-78
2021/11/24 06:00:28;;;;;;;8.33;5.10;;;;;;;;;;5092074;28;20217;-77
2021/11/24 06:02:54;;;;;;;6.70;5.57;;;;;;;;;;5090037;28;20880;-80
2021/11/24 06:05:20;;;;;;;8.40;4.67;;;;;;;;;;5087932;28;20315;-74
2021/11/24 06:07:46;;;;;;;7.87;4.57;;;6.30;94.30;;;;;;5090216;28;20193;-74
2021/11/24 06:10:12;;;;;;;4.90;4.27;;;6.30;94.30;;;;;;5092089;28;20743;-75
2021/11/24 06:12:38;;;;;;;7.23;4.70;;;6.30;94.20;;;;;;5086821;28;20189;-76
2021/11/24 06:15:05;;;;;;;13.47;7.60;;;6.30;94.20;;;;;;5089974;28;20185;-76
2021/11/24 06:17:32;;;;;;;15.50;7.93;;;6.30;94.20;;;;;;5091541;28;20190;-74
2021/11/24 06:19:58;;;;;;;12.20;7.50;;;6.40;94.10;;;;;;5091589;28;20206;-74
2021/11/24 06:22:24;;;;;;;12.57;6.63;;;;;;;;;;5092291;28;20185;-75
2021/11/24 06:24:50;;;;;;;9.80;5.70;;;;;;;;;;5086980;28;20183;-79
2021/11/24 06:27:16;;;;;;;8.43;5.47;;;;;;;;;;5089024;28;20185;-77
2021/11/24 06:29:42;;;;;;;8.77;5.03;;;6.40;94.10;;;;;;5094561;28;20214;-77
2021/11/24 06:32:08;;;;;;;8.43;5.10;;;6.40;94.00;;;;;;5091978;28;20213;-78
2021/11/24 06:34:34;;;;;;;4.87;4.47;;;6.40;94.00;;;;;;5097210;28;20211;-78
2021/11/24 06:37:00;;;;;;;9.00;4.70;;;;;;;;;;5094923;28;20181;-77
2021/11/24 06:39:27;;;;;;;8.67;5.43;;;6.40;93.90;;;;;;5090125;28;20927;-79
2021/11/24 06:41:56;;;;;;;9.23;5.80;;;6.40;94.00;;;;;;5093011;28;20728;-77
2021/11/24 06:44:22;;;;;;;9.00;5.37;;;6.40;94.00;;;;;;5100217;28;20185;-79
2021/11/24 06:46:48;;;;;;;8.40;5.13;;;6.40;94.00;;;;;;5091861;28;20661;-80
2021/11/24 06:49:14;;;;;;;6.37;4.00;;;6.40;94.10;;;;;;5090656;28;20189;-79
2021/11/24 06:51:40;;;;;;;5.67;4.07;;;6.40;93.90;;;;;;5091710;28;20495;-80
2021/11/24 06:54:06;;;;;;;5.60;4.73;;;6.40;93.90;;;;;;5087013;28;20750;-80
2021/11/24 06:56:32;;;;;;;10.23;5.07;;;;;;;;;;5093824;28;20248;-80
2021/11/24 06:58:58;;;;;;;8.23;5.47;;;;;;;;;;5086121;28;20202;-79
2021/11/24 07:01:25;;;;;;;6.13;3.77;;;6.50;93.80;;;;;;5096613;28;20185;-80
2021/11/24 07:03:52;;;;;;;8.60;5.03;;;;;;;;;;5088837;28;20190;-80
2021/11/24 07:06:18;;;;;;;7.53;5.13;;;;;;;;;;5093232;28;20621;-79
2021/11/24 07:08:44;;;;;;;5.80;5.07;;;;;;;;;;5095338;28;20187;-80
2021/11/24 07:11:10;;;;;;;7.53;4.80;;;;;;;;;;5087986;28;20560;-79
2021/11/24 07:13:36;;;;;;;4.83;4.33;;;6.50;93.20;;;;;;5085853;28;20183;-79
2021/11/24 07:16:02;;;;;;;12.80;5.33;;;;;;;;;;5089787;28;20239;-78
2021/11/24 07:18:28;;;;;;;7.33;5.47;;;;;;;;;;5086304;28;20197;-79
2021/11/24 07:20:54;;;;;;;11.87;5.60;;;;;;;;;;5088985;28;20178;-78
2021/11/24 07:23:20;;;;;;;11.03;4.53;;;;;;;;;;5088897;28;20265;-78
2021/11/24 07:25:46;;;;;;;6.10;5.17;;;;;;;;;;5089601;28;20760;-78
2021/11/24 07:28:13;;;;;;;13.93;5.90;;;;;;;;;;5083205;28;20214;-79
2021/11/24 07:30:39;;;;;;;9.13;5.10;;;;;;;;;;5081336;28;20178;-79
2021/11/24 07:33:05;;;;;;;6.27;4.83;;;;;;;;;;5086008;28;20231;-79
2021/11/24 07:35:32;;;;;;;6.03;5.33;;;6.80;93.10;;;;;;5085467;28;20250;-79
2021/11/24 07:37:59;;;;;;;6.87;5.50;;;6.90;92.80;;;;;;5092808;28;20185;-79
2021/11/24 07:40:25;;;;;;;9.00;5.67;;;6.90;92.60;;;;;;5087923;28;20225;-80
2021/11/24 07:42:51;;;;;;;7.43;4.87;;;;;;;;;;5085537;28;20193;-79
2021/11/24 07:45:17;;;;;;;8.13;4.70;;;;;;;;;;5085574;28;20239;-79
2021/11/24 07:47:43;;;;;;;8.70;5.67;;;6.90;92.40;;;;;;5082634;28;20186;-78
2021/11/24 07:50:09;;;;;;;8.30;5.43;;;7.00;92.30;;;;;;5084603;28;20182;-78
2021/11/24 07:52:35;;;;;;;5.43;4.90;;;7.00;92.30;;;;;;5086839;28;20235;-79
2021/11/24 07:55:01;;;;;;;5.77;4.30;;;7.00;91.90;;;;;;5088609;28;20178;-79
2021/11/24 07:57:28;;;;;;;6.17;4.30;;;;;;;;;;5086969;28;20615;-79
2021/11/24 07:59:54;;;;;;;5.60;3.73;;;7.20;92.10;;;;;;5086662;28;20216;-79
2021/11/24 08:02:20;;;;;;;9.07;5.00;;;7.20;92.10;;;;;;5087535;28;20182;-80
2021/11/24 08:04:46;;;;;;;5.90;4.07;;;7.30;91.60;;;;;;5086592;28;20197;-78
2021/11/24 08:07:12;;;;;;;6.10;4.67;;;7.30;91.60;;;;;;5084906;28;20178;-78
2021/11/24 08:09:37;;;;;;;7.30;5.77;;;7.30;91.50;;;;;;5088817;28;20276;-78
2021/11/24 08:12:03;;;;;;;6.37;4.63;;;7.30;91.70;;;;;;5080569;28;20182;-79
2021/11/24 08:14:29;;;;;;;9.60;4.93;;;;;;;;;;5089836;28;20675;-78
2021/11/24 08:16:56;;;;;;;6.07;4.30;;;7.50;91.50;;;;;;5091614;28;20236;-79
2021/11/24 08:19:22;;;;;;;8.00;5.20;;;7.50;91.40;;;;;;5088798;28;20623;-80
2021/11/24 08:21:48;;;;;;;9.03;5.07;;;7.60;91.10;;;;;;5086776;28;20186;-80
2021/11/24 08:24:14;;;;;;;7.13;4.57;;;7.60;91.00;;;;;;5080561;28;20761;-79
2021/11/24 08:26:40;;;;;;;6.83;4.57;;;7.70;91.10;;;;;;5089274;28;20686;-79
2021/11/24 08:29:07;;;;;;;8.87;4.43;;;7.80;91.20;;;;;;5082847;28;20182;-79
2021/11/24 08:31:39;;;;;;;6.47;5.67;;;7.90;91.30;;;;;;5086544;28;20213;-79
2021/11/24 08:34:07;;;;;;;7.40;4.27;;;8.00;91.30;;;;;;5085248;28;20178;-78
2021/11/24 08:36:33;;;;;;;7.37;4.90;;;;;;;;;;5089418;28;20198;-79
2021/11/24 08:38:59;;;;;;;9.47;5.17;;;;;;;;;;5086605;28;20347;-79
2021/11/24 08:41:25;;;;;;;8.47;4.97;;;8.20;90.70;;;;;;5087859;28;20573;-79
2021/11/24 08:43:51;;;;;;;7.93;4.57;;;;;;;;;;5085415;28;20194;-79
2021/11/24 08:46:17;;;;;;;7.37;5.53;;;8.30;90.30;;;;;;5087764;27;20182;-78
2021/11/24 08:48:42;;;;;;;10.10;6.00;;;8.30;90.30;;;;;;5083094;28;20547;-79
2021/11/24 08:51:08;;;;;;;9.63;5.60;;;8.30;90.10;;;;;;5082917;28;20185;-79
2021/11/24 08:53:34;;;;;;;8.67;5.60;;;8.40;90.30;;;;;;5088177;28;20209;-78
2021/11/24 08:56:00;;;;;;;7.47;5.47;;;8.50;90.30;;;;;;5088651;28;20182;-78
2021/11/24 08:58:26;;;;;;;5.87;4.53;;;8.60;90.20;;;;;;5085929;28;20194;-79
2021/11/24 09:00:52;;;;;;;6.77;4.37;;;;;;;;;;5081227;28;20746;-79
2021/11/24 09:03:20;;;;;;;7.43;5.47;;;;;;;;;;5091276;28;20189;-79
2021/11/24 09:05:47;;;;;;;8.03;4.30;;;;;;;;;;5087076;28;20576;-79
2021/11/24 09:08:13;;;;;;;6.97;4.73;;;;;;;;;;5085347;28;20292;-78
2021/11/24 09:10:39;;;;;;;8.17;4.67;;;;;;;;;;5083793;28;20574;-79
2021/11/24 09:13:05;;;;;;;8.83;6.03;;;8.80;89.00;;;;;;5084271;28;20230;-79
2021/11/24 09:15:31;;;;;;;10.07;5.90;;;;;;;;;;5088797;28;20192;-79
2021/11/24 09:17:57;;;;;;;11.33;5.67;;;8.80;89.60;;;;;;5088563;28;20186;-79
2021/11/24 09:20:24;;;;;;;10.67;4.73;;;;;;;;;;5089484;28;20609;-78
2021/11/24 09:22:51;;;;;;;8.10;5.67;;;8.90;89.60;;;;;;5090331;28;20190;-78
2021/11/24 09:25:21;;;;;;;8.23;5.83;;;9.00;89.40;;;;;;5088735;28;20313;-79
2021/11/24 09:28:06;;;;;;;8.67;5.30;;;9.00;88.60;;;;;;5091739;28;20265;-79
2021/11/24 09:30:32;;;;;;;9.63;4.93;;;9.10;89.30;;;;;;5082829;28;20221;-79
2021/11/24 09:32:58;;;;;;;6.83;5.67;;;9.10;89.30;;;;;;5088855;28;20181;-79
2021/11/24 09:35:24;;;;;;;9.37;5.73;;;9.20;89.30;;;;;;5086577;28;20186;-79
2021/11/24 09:37:51;;;;;;;7.23;4.67;;;9.40;89.10;;;;;;5088875;28;20182;-79
2021/11/24 09:40:17;;;;;;;7.43;4.63;;;9.40;89.10;;;;;;5089004;28;20376;-80
2021/11/24 09:42:46;;;;;;;6.73;5.03;;;9.60;88.80;;;;;;5089358;28;20551;-79
2021/11/24 09:45:14;;;;;;;7.93;4.90;;;9.70;88.40;;;;;;5085887;28;20229;-82
2021/11/24 09:47:45;;;;;;;7.20;5.43;;;9.80;88.10;;;;;;5090693;28;20185;-79
2021/11/24 09:50:12;;;;;;;9.98;6.38;;;9.90;87.60;;;;;;5097235;28;20173;-80
2021/11/24 09:52:38;;;;;;;6.60;5.60;;;10.00;87.40;;;;;;5090933;28;20190;-79
2021/11/24 09:55:05;;;;;;;11.43;5.32;;;10.10;87.10;;;;;;5087844;28;20745;-80
2021/11/24 09:57:31;;;;;;;7.60;5.47;;;10.20;86.90;;;;;;5090323;28;20190;-79
2021/11/24 09:59:57;;;;;;;7.57;5.57;;;10.40;86.90;;;;;;5095816;28;20217;-80
2021/11/24 10:02:23;;;;;;;9.55;6.07;;;10.50;85.90;;;;;;5090275;28;20178;-80
2021/11/24 10:04:49;;;;;;;8.05;6.22;;;10.60;84.90;;;;;;5085913;28;20196;-80
2021/11/24 10:07:19;;;;;;;8.90;6.22;;;10.60;84.90;;;;;;5093000;28;20664;-81
2021/11/24 10:09:47;;;;;;;11.15;7.13;;;10.60;84.70;;;;;;5094242;28;20585;-80
2021/11/24 10:12:13;;;;;;;10.48;6.20;;;10.60;84.70;;;;;;5100042;28;20177;-80
2021/11/24 10:14:40;;;;;;;7.45;5.65;;;10.60;84.70;;;;;;5093256;28;20181;-80
2021/11/24 10:17:15;;;;;;;6.50;5.13;;;10.60;84.60;;;;;;5088519;28;20260;-80
2021/11/24 10:20:06;;;;;;;7.25;4.90;;;10.60;84.60;;;;;;5088728;28;20221;-80
2021/11/24 10:22:32;;;;;;;10.57;5.15;;;10.70;84.30;;;;;;5091329;28;20178;-80
2021/11/24 10:25:13;;;;;;;8.02;5.43;;;10.70;84.20;;;;;;5093620;28;20758;-80
2021/11/24 10:27:43;;;;;;;5.78;4.50;;;10.80;84.00;;;;;;5094283;28;20186;-81
2021/11/24 10:30:09;;;;;;;10.57;5.65;;;10.80;84.00;;;;;;5093779;28;20247;-80
2021/11/24 10:32:35;;;;;;;13.68;5.25;;;10.70;83.60;;;;;;5092143;28;20179;-80
2021/11/24 10:35:02;;;;;;;6.72;4.85;;;10.50;83.60;;;;;;5091830;28;20182;-80
2021/11/24 10:37:28;;;;;;;7.35;5.28;;;10.40;84.10;;;;;;5096359;28;20577;-80
2021/11/24 10:40:01;;;;;;;6.05;4.68;;;10.30;84.40;;;;;;5090447;28;20214;-80
2021/11/24 10:42:31;;;;;;;7.07;4.35;;;10.20;84.90;;;;;;5092523;28;20259;-80
2021/11/24 10:44:58;;;;;;;7.00;4.35;;;10.20;85.00;;;;;;5094896;28;20193;-80
2021/11/24 10:47:26;;;;;;;5.30;4.05;;;10.10;85.30;;;;;;5087758;28;20193;-79
2021/11/24 10:50:01;;;;;;;9.73;5.20;;;10.00;85.30;;;;;;5088835;28;21118;-79
2021/11/24 10:52:32;;;;;;;4.70;4.25;;;10.00;85.60;;;;;;5086091;28;21608;-79
2021/11/24 10:55:06;;;;;;;9.00;5.60;;;9.90;85.70;;;;;;5095431;28;20189;-79
2021/11/24 10:57:37;;;;;;;5.22;4.50;;;9.80;85.80;;;;;;5091786;28;20177;-79
2021/11/24 11:00:09;;;;;;;6.03;4.83;;;9.80;86.10;;;;;;5088042;28;20201;-79
2021/11/24 11:02:37;;;;;;;9.98;4.97;;;9.70;86.30;;;;;;5094337;28;20196;-79
2021/11/24 11:05:06;;;;;;;10.20;6.78;;;9.60;86.60;;;;;;5092765;28;20263;-79
2021/11/24 11:07:53;;;;;;;7.65;6.22;;;9.50;86.70;;;;;;5091546;28;20181;-80
2021/11/24 11:10:20;;;;;;;12.40;7.57;;;9.40;87.20;;;;;;5092515;28;20180;-79
2021/11/24 11:12:58;;;;;;;9.77;7.23;;;9.40;87.40;;;;;;5084919;28;20190;-80
2021/11/24 11:15:24;;;;;;;7.87;6.57;;;;;;;;;;5091443;28;20185;-81
2021/11/24 11:18:06;;;;;;;7.47;5.53;;;9.30;88.00;;;;;;5085632;28;20214;-79
2021/11/24 11:20:45;;;;;;;11.73;5.30;;;9.10;88.30;;;;;;5089255;28;20217;-80
2021/11/24 11:23:28;;;;;;;10.10;6.03;;;9.10;88.60;;;;;;5082165;28;20645;-79
2021/11/24 11:25:59;;;;;;;7.40;4.70;;;9.10;88.90;;;;;;5085800;28;20194;-79
2021/11/24 11:28:38;;;;;;;7.60;4.60;;;9.00;88.90;;;;;;5087356;28;20677;-79
2021/11/24 11:31:08;;;;;;;6.03;4.47;;;9.00;89.10;;;;;;5089537;28;20209;-79
2021/11/24 11:33:37;;;;;;;4.67;3.53;;;8.90;89.20;;;;;;5088217;28;20682;-80
2021/11/24 11:36:08;;;;;;;5.20;4.10;;;9.00;89.40;;;;;;5088416;28;20948;-79
2021/11/24 11:38:35;;;;;;;3.50;3.13;;;9.10;89.40;;;;;;5084396;28;20569;-79
2021/11/24 11:41:03;;;;;;;5.40;3.93;;;9.10;89.40;;;;;;5086948;28;20191;-80
2021/11/24 11:43:29;;;;;;;3.87;3.33;;;9.20;89.10;;;;;;5087111;28;20235;-79
2021/11/24 11:45:55;;;;;;;2.73;2.60;;;9.20;88.90;;;;;;5086663;28;20208;-81
2021/11/24 11:48:29;;;;;;;4.20;2.70;;;9.20;88.40;;;;;;5088307;28;20179;-80
2021/11/24 11:51:03;;;;;;;3.77;2.90;;;9.20;88.70;;;;;;5089337;28;20197;-80
2021/11/24 11:53:38;;;;;;;2.30;2.20;;;9.20;88.50;;;;;;5084336;28;20172;-80
2021/11/24 11:56:10;;;;;;;2.73;2.63;;;9.30;88.10;;;;;;5086625;28;20256;-80
2021/11/24 11:58:56;;;;;;;3.13;2.57;;;9.40;87.80;;;;;;5088610;28;20185;-79
2021/11/24 12:01:28;;;;;;;3.40;2.03;;;9.40;86.80;;;;;;5086623;28;20230;-78
2021/11/24 12:04:04;;;;;;;6.07;2.33;;;9.50;86.60;;;;;;5086101;28;20197;-79
2021/11/24 12:06:37;;;;;;;2.40;2.13;;;9.40;85.70;;;;;;5089367;28;20213;-79
2021/11/24 12:09:06;;;;;;;2.13;2.03;;;9.40;86.20;;;;;;5090761;28;20182;-79
2021/11/24 12:12:07;;;;;;;1.87;1.77;;;9.30;86.20;;;;;;5093335;28;20189;-79
2021/11/24 12:14:57;;;;;;;1.30;1.30;;;9.20;85.40;;;;;;5087632;28;20257;-78
2021/11/24 12:17:32;;;;;;;1.60;1.60;;;;;;;;;;5080398;28;20232;-78
2021/11/24 12:20:16;;;;;;;2.07;1.97;;;9.00;86.70;;;;;;5086312;28;20202;-80
2021/11/24 12:22:56;;;;;;;2.13;1.97;;;9.00;86.70;;;;;;5088074;28;20212;-79
2021/11/24 12:25:24;;;;;;;2.10;2.00;;;9.00;86.60;;;;;;5086790;28;20584;-78
2021/11/24 12:28:01;;;;;;;1.87;1.77;;;9.00;86.30;;;;;;5081447;28;20193;-80
2021/11/24 12:33:27;;;;;;;3.73;3.43;;;9.00;86.30;;;;;;5085244;28;20185;-80
2021/11/24 12:36:02;;;;;;;2.90;2.80;;;9.00;86.10;;;;;;5086262;28;20268;-78
2021/11/24 12:38:52;;;;;;;4.53;4.00;;;8.90;85.70;;;;;;5083800;28;20181;-78
2021/11/24 12:41:22;;;;;;;4.03;3.80;;;8.90;85.70;;;;;;5088297;28;20276;-80
2021/11/24 12:43:54;;;;;;;3.67;3.47;;;8.80;85.90;;;;;;5091330;28;20186;-79
2021/11/24 12:46:29;;;;;;;3.40;3.30;;;8.70;86.30;;;;;;5090452;28;20186;-79
2021/11/24 12:49:11;;;;;;;4.40;3.17;;;8.70;86.20;;;;;;5093683;28;20184;-80
2021/11/24 12:51:47;;;;;;;3.57;3.07;;;8.80;86.10;;;;;;5083386;28;20194;-78
2021/11/24 12:54:14;;;;;;;3.77;3.43;;;8.80;86.10;;;;;;5091145;28;20189;-78
2021/11/24 12:56:47;;;;;;;4.30;4.00;;;8.80;85.90;;;;;;5084882;28;20186;-80
2021/11/24 12:59:22;;;;;;;5.07;3.87;;;8.80;85.70;;;;;;5085247;28;20907;-79
2021/11/24 13:02:01;;;;;;;3.63;3.17;;;8.70;85.40;;;;;;5085312;28;20201;-78
2021/11/24 13:04:33;;;;;;;4.60;4.20;;;8.60;85.60;;;;;;5087741;28;20189;-79
2021/11/24 13:06:59;;;;;;;3.60;3.40;;;8.40;86.30;;;;;;5081350;28;20186;-78
2021/11/24 13:09:30;;;;;;;3.53;3.23;;;8.40;86.40;;;;;;5086506;28;20209;-79
2021/11/24 13:11:58;;;;;;;3.60;3.40;;;8.20;86.20;;;;;;5086145;28;20864;-80
2021/11/24 13:14:45;;;;;;;3.50;3.27;;;8.10;86.80;;;;;;5086757;28;20181;-80
2021/11/24 13:17:28;;;;;;;3.43;3.17;;;8.00;86.80;;;;;;5085548;28;20220;-80
2021/11/24 13:19:59;;;;;;;3.30;3.10;;;8.10;86.70;;;;;;5087932;28;20302;-80
2021/11/24 13:22:39;;;;;;;3.37;3.17;;;8.00;86.80;;;;;;5083489;28;20219;-80
2021/11/24 13:25:17;;;;;;;3.20;2.90;;;8.00;86.90;;;;;;5091209;28;20180;-79
2021/11/24 13:27:58;;;;;;;3.80;3.50;;;8.00;86.90;;;;;;5085852;28;20586;-80
2021/11/24 13:30:26;;;;;;;3.30;3.00;;;8.00;87.20;;;;;;5092117;28;20722;-78